Time;durP1;ratioP1;P1;durP2;ratioP2;P2;SDS_P1;SDS_P2;PMS_P1;PMS_P2;Temp;Humidity;BMP_temperature;BMP_pressure;BME280_temperature;BME280_humidity;BME280_pressure;Samples;Min_cycle;Max_cycle;Signal;HPM_P1;HPM_P2
2023/03/15 00:01:13;;;;;;;;;;;20.20;43.70;;;;;;1537777;77;1945;-59
2023/03/15 00:03:15;;;;;;;;;;;20.20;43.60;;;;;;1533580;77;1123;-60
2023/03/15 00:05:16;;;;;;;;;;;20.10;43.70;;;;;;1543742;77;757;-62
2023/03/15 00:07:18;;;;;;;;;;;20.20;43.80;;;;;;1539454;77;705;-59
2023/03/15 00:09:21;;;;;;;;;;;20.10;43.80;;;;;;1546872;77;1251;-61
2023/03/15 00:11:23;;;;;;;;;;;20.20;43.80;;;;;;1539948;77;1131;-60
2023/03/15 00:13:24;;;;;;;;;;;20.20;43.70;;;;;;1534550;77;910;-60
2023/03/15 00:15:26;;;;;;;;;;;20.10;43.80;;;;;;1539934;77;792;-58
2023/03/15 00:17:28;;;;;;;;;;;20.20;43.70;;;;;;1548890;77;743;-60
2023/03/15 00:19:30;;;;;;;;;;;20.10;43.80;;;;;;1535788;77;790;-60
2023/03/15 00:21:33;;;;;;;;;;;20.20;43.80;;;;;;1537566;77;1952;-60
2023/03/15 00:23:35;;;;;;;;;;;20.10;43.80;;;;;;1547244;77;1507;-59
2023/03/15 00:25:36;;;;;;;;;;;20.10;43.80;;;;;;1538177;77;777;-60
2023/03/15 00:27:38;;;;;;;;;;;20.20;43.80;;;;;;1535299;77;723;-60
2023/03/15 00:29:40;;;;;;;;;;;20.10;43.90;;;;;;1524713;77;777;-59
2023/03/15 00:31:42;;;;;;;;;;;20.10;43.80;;;;;;1536070;77;1150;-60
2023/03/15 00:33:44;;;;;;;;;;;20.20;43.90;;;;;;1536297;77;705;-58
2023/03/15 00:35:46;;;;;;;;;;;20.20;43.80;;;;;;1540122;77;784;-58
2023/03/15 00:37:48;;;;;;;;;;;20.10;43.80;;;;;;1536532;77;1509;-60
2023/03/15 00:39:50;;;;;;;;;;;20.10;43.80;;;;;;1534878;77;748;-58
2023/03/15 00:41:55;;;;;;;;;;;20.10;43.80;;;;;;1537978;77;1943;-60
2023/03/15 00:43:55;;;;;;;;;;;20.10;43.70;;;;;;1532616;77;1724;-61
2023/03/15 00:45:57;;;;;;;;;;;20.10;43.80;;;;;;1546073;77;668;-59
2023/03/15 00:47:59;;;;;;;;;;;20.10;43.80;;;;;;1540853;77;665;-59
2023/03/15 00:50:01;;;;;;;;;;;20.20;43.70;;;;;;1535486;77;806;-60
2023/03/15 00:52:03;;;;;;;;;;;20.10;43.70;;;;;;1536169;77;1674;-60
2023/03/15 00:54:05;;;;;;;;;;;20.10;43.70;;;;;;1530391;77;778;-60
2023/03/15 00:56:08;;;;;;;;;;;20.20;43.70;;;;;;1538464;77;731;-60
2023/03/15 00:58:10;;;;;;;;;;;20.20;43.70;;;;;;1542074;77;655;-58
2023/03/15 01:00:14;;;;;;;;;;;20.10;43.70;;;;;;1537964;77;989;-59
2023/03/15 01:02:15;;;;;;;;;;;20.20;43.60;;;;;;1536369;77;1932;-60
2023/03/15 01:04:17;;;;;;;;;;;20.10;43.50;;;;;;1538996;77;695;-61
2023/03/15 01:06:20;;;;;;;;;;;20.20;43.60;;;;;;1537204;77;1615;-61
2023/03/15 01:08:23;;;;;;;;;;;20.20;43.60;;;;;;1541966;77;714;-60
2023/03/15 01:10:24;;;;;;;;;;;20.10;43.60;;;;;;1548148;77;921;-59
2023/03/15 01:12:27;;;;;;;;;;;20.10;43.60;;;;;;1532797;77;1146;-60
2023/03/15 01:14:29;;;;;;;;;;;20.10;43.70;;;;;;1540421;77;760;-59
2023/03/15 01:16:31;;;;;;;;;;;20.10;43.60;;;;;;1548365;77;730;-60
2023/03/15 01:18:32;;;;;;;;;;;20.20;43.60;;;;;;1547457;77;1559;-60
2023/03/15 01:20:34;;;;;;;;;;;20.20;43.60;;;;;;1536081;77;804;-60
2023/03/15 01:22:36;;;;;;;;;;;20.10;43.60;;;;;;1547875;77;1953;-59
2023/03/15 01:24:38;;;;;;;;;;;20.20;43.70;;;;;;1548643;77;771;-59
2023/03/15 01:26:40;;;;;;;;;;;20.20;43.50;;;;;;1542468;77;721;-60
2023/03/15 01:28:42;;;;;;;;;;;20.10;43.60;;;;;;1532012;77;748;-60
2023/03/15 01:30:45;;;;;;;;;;;20.10;43.70;;;;;;1532555;77;736;-59
2023/03/15 01:32:47;;;;;;;;;;;20.10;43.70;;;;;;1540389;77;1549;-60
2023/03/15 01:34:49;;;;;;;;;;;20.10;43.70;;;;;;1533009;77;659;-59
2023/03/15 01:36:54;;;;;;;;;;;20.10;43.70;;;;;;1543196;77;719;-58
2023/03/15 01:38:55;;;;;;;;;;;20.20;43.60;;;;;;1535536;77;738;-60
2023/03/15 01:40:57;;;;;;;;;;;20.10;43.60;;;;;;1542369;77;1925;-60
2023/03/15 01:43:04;;;;;;;;;;;20.10;43.60;;;;;;1547490;77;1104;-59
2023/03/15 01:45:07;;;;;;;;;;;20.20;43.60;;;;;;1548231;77;713;-58
2023/03/15 01:47:09;;;;;;;;;;;20.10;43.60;;;;;;1538888;77;1510;-59
2023/03/15 01:49:18;;;;;;;;;;;20.10;43.70;;;;;;1532052;77;798;-60
2023/03/15 01:51:22;;;;;;;;;;;20.10;43.60;;;;;;1533080;77;755;-59
2023/03/15 01:53:24;;;;;;;;;;;20.10;43.70;;;;;;1536589;77;686;-59
2023/03/15 01:55:26;;;;;;;;;;;20.10;43.70;;;;;;1528380;77;775;-60
2023/03/15 01:57:29;;;;;;;;;;;20.10;43.70;;;;;;1539763;77;753;-60
2023/03/15 01:59:32;;;;;;;;;;;20.10;43.70;;;;;;1535954;77;690;-60
2023/03/15 02:01:34;;;;;;;;;;;20.10;43.60;;;;;;1544631;77;1947;-60
2023/03/15 02:03:38;;;;;;;;;;;20.10;43.60;;;;;;1539069;77;810;-60
2023/03/15 02:05:44;;;;;;;;;;;20.10;43.60;;;;;;1540259;77;1950;-58
2023/03/15 02:07:49;;;;;;;;;;;20.10;43.60;;;;;;1533295;77;1645;-59
2023/03/15 02:09:55;;;;;;;;;;;20.10;43.60;;;;;;1540106;77;949;-60
2023/03/15 02:11:57;;;;;;;;;;;20.10;43.70;;;;;;1543794;77;1164;-60
2023/03/15 02:13:59;;;;;;;;;;;20.00;43.60;;;;;;1533380;77;700;-60
2023/03/15 02:16:05;;;;;;;;;;;20.10;43.70;;;;;;1545044;77;1549;-60
2023/03/15 02:18:04;;;;;;;;;;;20.10;43.70;;;;;;1536238;77;1682;-58
2023/03/15 02:20:11;;;;;;;;;;;20.10;43.70;;;;;;1542728;77;820;-59
2023/03/15 02:22:14;;;;;;;;;;;20.10;43.70;;;;;;1535681;77;1934;-59
2023/03/15 02:24:24;;;;;;;;;;;20.10;43.70;;;;;;1546652;77;840;-59
2023/03/15 02:26:27;;;;;;;;;;;20.10;43.80;;;;;;1532145;77;774;-59
2023/03/15 02:28:29;;;;;;;;;;;20.00;43.60;;;;;;1535061;77;1965;-59
2023/03/15 02:30:31;;;;;;;;;;;20.10;43.70;;;;;;1536768;77;1501;-59
2023/03/15 02:32:33;;;;;;;;;;;20.00;43.60;;;;;;1538886;77;1119;-59
2023/03/15 02:34:35;;;;;;;;;;;20.10;43.70;;;;;;1538572;77;707;-60
2023/03/15 02:36:37;;;;;;;;;;;20.10;43.70;;;;;;1534783;77;705;-60
2023/03/15 02:38:39;;;;;;;;;;;20.00;43.60;;;;;;1533535;77;793;-60
2023/03/15 02:40:40;;;;;;;;;;;20.10;43.70;;;;;;1540190;77;716;-58
2023/03/15 02:42:42;;;;;;;;;;;20.10;43.60;;;;;;1545666;77;1933;-60
2023/03/15 02:44:44;;;;;;;;;;;20.10;43.70;;;;;;1545602;77;1561;-58
2023/03/15 02:46:47;;;;;;;;;;;20.00;43.60;;;;;;1535851;77;753;-60
2023/03/15 02:48:52;;;;;;;;;;;20.10;43.70;;;;;;1529453;77;747;-59
2023/03/15 02:50:53;;;;;;;;;;;20.10;43.70;;;;;;1537849;77;1683;-61
2023/03/15 02:52:55;;;;;;;;;;;20.00;43.30;;;;;;1547822;77;1158;-60
2023/03/15 02:54:56;;;;;;;;;;;20.00;43.60;;;;;;1541476;77;727;-59
2023/03/15 02:56:58;;;;;;;;;;;20.00;43.60;;;;;;1546749;77;713;-58
2023/03/15 02:59:00;;;;;;;;;;;20.00;43.60;;;;;;1545743;77;699;-62
2023/03/15 03:01:02;;;;;;;;;;;20.10;43.70;;;;;;1541009;75;721;-60
2023/03/15 03:03:04;;;;;;;;;;;20.00;43.60;;;;;;1544568;77;1923;-60
2023/03/15 03:05:06;;;;;;;;;;;20.00;43.60;;;;;;1545066;77;647;-60
2023/03/15 03:07:08;;;;;;;;;;;20.00;43.60;;;;;;1535717;77;776;-59
2023/03/15 03:09:10;;;;;;;;;;;20.00;43.60;;;;;;1537521;77;701;-58
2023/03/15 03:11:13;;;;;;;;;;;20.00;43.60;;;;;;1536030;77;1276;-59
2023/03/15 03:13:15;;;;;;;;;;;20.00;43.60;;;;;;1541053;77;1082;-60
2023/03/15 03:15:17;;;;;;;;;;;20.10;43.70;;;;;;1540797;77;778;-60
2023/03/15 03:17:19;;;;;;;;;;;20.00;43.60;;;;;;1540107;77;771;-59
2023/03/15 03:19:24;;;;;;;;;;;20.00;43.60;;;;;;1541917;77;696;-59
2023/03/15 03:21:25;;;;;;;;;;;20.00;43.60;;;;;;1529783;77;1940;-60
2023/03/15 03:23:26;;;;;;;;;;;20.00;43.60;;;;;;1537323;77;705;-60
2023/03/15 03:25:28;;;;;;;;;;;20.00;43.60;;;;;;1530962;77;1554;-58
2023/03/15 03:27:30;;;;;;;;;;;20.00;43.60;;;;;;1546982;77;717;-61
2023/03/15 03:29:32;;;;;;;;;;;20.00;43.50;;;;;;1539683;77;735;-58
2023/03/15 03:31:34;;;;;;;;;;;20.00;43.60;;;;;;1535234;77;1179;-60
2023/03/15 03:33:36;;;;;;;;;;;20.00;43.50;;;;;;1534876;77;773;-58
2023/03/15 03:35:38;;;;;;;;;;;20.00;43.60;;;;;;1534435;77;743;-63
2023/03/15 03:37:39;;;;;;;;;;;20.00;43.50;;;;;;1532878;77;721;-60
2023/03/15 03:39:41;;;;;;;;;;;20.10;43.70;;;;;;1545491;77;1539;-59
2023/03/15 03:41:43;;;;;;;;;;;20.00;43.50;;;;;;1530250;77;1937;-60
2023/03/15 03:43:45;;;;;;;;;;;20.00;43.60;;;;;;1534671;77;707;-59
2023/03/15 03:45:47;;;;;;;;;;;20.00;43.60;;;;;;1544624;77;751;-60
2023/03/15 03:47:50;;;;;;;;;;;20.00;43.60;;;;;;1543034;77;731;-60
2023/03/15 03:49:52;;;;;;;;;;;20.00;43.60;;;;;;1533702;77;1054;-60
2023/03/15 03:51:54;;;;;;;;;;;20.00;43.50;;;;;;1538226;77;1197;-59
2023/03/15 03:53:56;;;;;;;;;;;20.00;43.30;;;;;;1541875;77;1605;-60
2023/03/15 03:55:58;;;;;;;;;;;20.00;43.60;;;;;;1536825;77;693;-59
2023/03/15 03:57:59;;;;;;;;;;;20.00;43.60;;;;;;1535331;77;784;-59
2023/03/15 04:00:02;;;;;;;;;;;20.00;43.60;;;;;;1541195;77;777;-59
2023/03/15 04:02:03;;;;;;;;;;;19.90;43.60;;;;;;1538436;77;1941;-59
2023/03/15 04:04:05;;;;;;;;;;;20.00;43.60;;;;;;1534209;77;776;-58
2023/03/15 04:06:07;;;;;;;;;;;19.90;43.60;;;;;;1543455;77;729;-58
2023/03/15 04:08:09;;;;;;;;;;;20.00;43.60;;;;;;1543187;77;1425;-59
2023/03/15 04:10:15;;;;;;;;;;;20.00;43.60;;;;;;1539986;77;809;-60
2023/03/15 04:12:14;;;;;;;;;;;19.90;43.60;;;;;;1524769;77;1241;-59
2023/03/15 04:14:16;;;;;;;;;;;20.00;43.60;;;;;;1539824;77;729;-59
2023/03/15 04:16:19;;;;;;;;;;;19.90;43.60;;;;;;1540916;77;850;-61
2023/03/15 04:18:20;;;;;;;;;;;20.00;43.60;;;;;;1535376;77;652;-59
2023/03/15 04:20:23;;;;;;;;;;;20.00;43.60;;;;;;1539915;77;713;-59
2023/03/15 04:22:24;;;;;;;;;;;20.00;43.60;;;;;;1540099;77;1953;-58
2023/03/15 04:24:26;;;;;;;;;;;20.00;43.60;;;;;;1545020;77;769;-59
2023/03/15 04:26:28;;;;;;;;;;;19.90;43.70;;;;;;1539552;77;799;-58
2023/03/15 04:28:30;;;;;;;;;;;19.90;43.60;;;;;;1536563;77;708;-59
2023/03/15 04:30:32;;;;;;;;;;;19.90;43.60;;;;;;1534209;77;671;-60
2023/03/15 04:32:34;;;;;;;;;;;19.90;43.70;;;;;;1543865;77;1153;-61
2023/03/15 04:34:39;;;;;;;;;;;20.00;43.70;;;;;;1531594;77;707;-58
2023/03/15 04:36:41;;;;;;;;;;;19.90;43.60;;;;;;1538488;77;1526;-59
2023/03/15 04:38:45;;;;;;;;;;;19.90;43.60;;;;;;1540159;77;738;-61
2023/03/15 04:40:47;;;;;;;;;;;19.90;43.40;;;;;;1540120;77;696;-60
2023/03/15 04:42:50;;;;;;;;;;;19.90;43.70;;;;;;1542954;77;1951;-58
2023/03/15 04:44:52;;;;;;;;;;;19.90;43.60;;;;;;1542452;77;999;-59
2023/03/15 04:46:54;;;;;;;;;;;19.90;43.70;;;;;;1531215;77;721;-60
2023/03/15 04:48:56;;;;;;;;;;;19.90;43.60;;;;;;1533910;77;800;-60
2023/03/15 04:50:58;;;;;;;;;;;19.90;43.70;;;;;;1533730;77;1636;-60
2023/03/15 04:53:00;;;;;;;;;;;19.90;43.70;;;;;;1528583;77;1132;-60
2023/03/15 04:55:02;;;;;;;;;;;19.90;43.70;;;;;;1535168;77;705;-59
2023/03/15 04:57:04;;;;;;;;;;;19.90;43.70;;;;;;1534052;77;760;-59
2023/03/15 04:59:06;;;;;;;;;;;19.90;43.70;;;;;;1529442;77;767;-59
2023/03/15 05:01:07;;;;;;;;;;;19.90;43.70;;;;;;1535277;77;778;-59
2023/03/15 05:03:09;;;;;;;;;;;19.90;43.70;;;;;;1546511;77;1953;-61
2023/03/15 05:05:11;;;;;;;;;;;19.90;43.70;;;;;;1531641;77;1499;-61
2023/03/15 05:07:13;;;;;;;;;;;19.90;43.70;;;;;;1525099;77;702;-60
2023/03/15 05:09:16;;;;;;;;;;;19.90;43.70;;;;;;1531384;77;732;-61
2023/03/15 05:11:18;;;;;;;;;;;19.90;43.70;;;;;;1534053;77;711;-59
2023/03/15 05:13:20;;;;;;;;;;;19.90;43.60;;;;;;1523987;77;1124;-59
2023/03/15 05:15:22;;;;;;;;;;;19.90;43.70;;;;;;1544871;77;822;-58
2023/03/15 05:17:24;;;;;;;;;;;19.90;43.80;;;;;;1542002;77;979;-60
2023/03/15 05:19:26;;;;;;;;;;;19.90;43.80;;;;;;1543480;77;1667;-60
2023/03/15 05:21:28;;;;;;;;;;;19.90;43.70;;;;;;1539186;77;1173;-59
2023/03/15 05:23:31;;;;;;;;;;;20.00;43.80;;;;;;1546499;77;1951;-58
2023/03/15 05:25:33;;;;;;;;;;;20.00;43.90;;;;;;1541195;77;810;-60
2023/03/15 05:27:35;;;;;;;;;;;19.90;43.90;;;;;;1535205;77;683;-60
2023/03/15 05:29:36;;;;;;;;;;;19.90;44.00;;;;;;1547651;77;757;-58
2023/03/15 05:31:39;;;;;;;;;;;19.90;43.90;;;;;;1545013;77;1165;-59
2023/03/15 05:33:45;;;;;;;;;;;19.90;43.90;;;;;;1513038;78;721;-59
2023/03/15 05:35:44;;;;;;;;;;;19.90;44.00;;;;;;1531877;77;1621;-59
2023/03/15 05:37:46;;;;;;;;;;;19.90;44.00;;;;;;1545942;77;776;-62
2023/03/15 05:39:48;;;;;;;;;;;19.90;44.10;;;;;;1534945;77;783;-61
2023/03/15 05:41:50;;;;;;;;;;;20.00;43.90;;;;;;1531260;77;1192;-60
2023/03/15 05:43:52;;;;;;;;;;;19.90;43.90;;;;;;1542420;77;1913;-61
2023/03/15 05:45:54;;;;;;;;;;;19.90;43.90;;;;;;1540653;77;746;-59
2023/03/15 05:47:56;;;;;;;;;;;19.90;43.90;;;;;;1535985;77;696;-60
2023/03/15 05:49:58;;;;;;;;;;;19.90;43.90;;;;;;1545462;77;680;-60
2023/03/15 05:51:59;;;;;;;;;;;19.90;43.90;;;;;;1529213;77;1115;-59
2023/03/15 05:54:01;;;;;;;;;;;19.90;43.80;;;;;;1531944;77;723;-59
2023/03/15 05:56:04;;;;;;;;;;;20.00;43.90;;;;;;1548648;77;841;-60
2023/03/15 05:58:06;;;;;;;;;;;20.00;43.70;;;;;;1548349;77;795;-59
2023/03/15 06:00:09;;;;;;;;;;;20.00;43.90;;;;;;1544718;77;751;-62
2023/03/15 06:02:10;;;;;;;;;;;20.00;43.90;;;;;;1534218;77;1145;-59
2023/03/15 06:04:12;;;;;;;;;;;19.90;43.90;;;;;;1541618;77;1951;-60
2023/03/15 06:06:14;;;;;;;;;;;20.00;43.80;;;;;;1546540;77;695;-60
2023/03/15 06:08:16;;;;;;;;;;;19.90;43.80;;;;;;1530646;77;743;-62
2023/03/15 06:10:18;;;;;;;;;;;19.90;43.80;;;;;;1534120;77;600;-60
2023/03/15 06:12:20;;;;;;;;;;;20.00;43.80;;;;;;1542289;77;1076;-60
2023/03/15 06:14:22;;;;;;;;;;;19.90;43.80;;;;;;1543850;77;716;-59
2023/03/15 06:16:24;;;;;;;;;;;20.00;43.90;;;;;;1548118;77;776;-60
2023/03/15 06:18:25;;;;;;;;;;;20.00;43.80;;;;;;1537954;77;771;-60
2023/03/15 06:20:27;;;;;;;;;;;20.00;43.80;;;;;;1547046;77;733;-60
2023/03/15 06:22:29;;;;;;;;;;;20.00;43.80;;;;;;1532284;77;1939;-61
2023/03/15 06:24:31;;;;;;;;;;;20.00;43.50;;;;;;1540535;77;789;-59
2023/03/15 06:26:33;;;;;;;;;;;20.00;43.80;;;;;;1543742;77;851;-60
2023/03/15 06:28:35;;;;;;;;;;;20.00;43.70;;;;;;1537276;77;801;-59
2023/03/15 06:30:37;;;;;;;;;;;20.00;43.80;;;;;;1534398;77;724;-58
2023/03/15 06:32:39;;;;;;;;;;;20.00;43.80;;;;;;1544732;77;1593;-59
2023/03/15 06:34:41;;;;;;;;;;;20.10;43.90;;;;;;1527243;77;947;-62
2023/03/15 06:36:43;;;;;;;;;;;20.00;43.80;;;;;;1536062;77;703;-60
2023/03/15 06:38:45;;;;;;;;;;;20.00;43.80;;;;;;1542599;77;758;-61
2023/03/15 06:40:46;;;;;;;;;;;20.00;43.70;;;;;;1547764;77;711;-60
2023/03/15 06:42:48;;;;;;;;;;;20.00;43.70;;;;;;1533571;77;1956;-60
2023/03/15 06:44:50;;;;;;;;;;;20.00;43.80;;;;;;1544904;77;668;-59
2023/03/15 06:46:52;;;;;;;;;;;20.00;43.40;;;;;;1547630;77;736;-59
2023/03/15 06:48:54;;;;;;;;;;;20.00;43.70;;;;;;1548305;77;723;-60
2023/03/15 06:50:56;;;;;;;;;;;20.00;43.70;;;;;;1543684;77;836;-60
2023/03/15 06:52:58;;;;;;;;;;;20.00;43.70;;;;;;1544628;77;1220;-60
2023/03/15 06:55:00;;;;;;;;;;;20.10;43.80;;;;;;1531363;77;659;-58
2023/03/15 06:57:02;;;;;;;;;;;20.00;43.60;;;;;;1544406;77;787;-59
2023/03/15 06:59:04;;;;;;;;;;;20.10;43.80;;;;;;1537883;77;743;-59
2023/03/15 07:01:06;;;;;;;;;;;20.10;43.80;;;;;;1532168;77;789;-59
2023/03/15 07:03:08;;;;;;;;;;;20.10;43.70;;;;;;1538639;77;1939;-58
2023/03/15 07:05:10;;;;;;;;;;;20.10;43.70;;;;;;1544627;77;713;-59
2023/03/15 07:07:12;;;;;;;;;;;20.10;43.70;;;;;;1532629;77;764;-59
2023/03/15 07:09:14;;;;;;;;;;;20.10;43.70;;;;;;1543704;77;732;-60
2023/03/15 07:11:15;;;;;;;;;;;20.10;43.60;;;;;;1542486;77;743;-58
2023/03/15 07:13:17;;;;;;;;;;;20.10;43.70;;;;;;1537536;77;1101;-59
2023/03/15 07:15:19;;;;;;;;;;;20.10;43.70;;;;;;1538929;77;702;-58
2023/03/15 07:17:21;;;;;;;;;;;20.10;43.70;;;;;;1541896;77;730;-60
2023/03/15 07:19:23;;;;;;;;;;;20.10;43.70;;;;;;1543030;77;771;-59
2023/03/15 07:21:25;;;;;;;;;;;20.10;43.70;;;;;;1547927;77;1149;-58
2023/03/15 07:23:27;;;;;;;;;;;20.10;43.70;;;;;;1546272;77;1931;-59
2023/03/15 07:25:29;;;;;;;;;;;20.10;43.70;;;;;;1537784;77;760;-58
2023/03/15 07:27:31;;;;;;;;;;;20.10;43.70;;;;;;1542927;77;725;-58
2023/03/15 07:29:33;;;;;;;;;;;20.10;43.70;;;;;;1531467;77;1545;-58
2023/03/15 07:31:35;;;;;;;;;;;20.10;43.60;;;;;;1540611;77;1135;-58
2023/03/15 07:33:37;;;;;;;;;;;20.10;43.60;;;;;;1535241;77;804;-58
2023/03/15 07:35:39;;;;;;;;;;;20.10;43.50;;;;;;1544754;77;607;-59
2023/03/15 07:37:41;;;;;;;;;;;20.20;43.60;;;;;;1538819;77;786;-59
2023/03/15 07:39:43;;;;;;;;;;;20.10;43.60;;;;;;1548104;77;632;-58
2023/03/15 07:41:44;;;;;;;;;;;20.10;43.60;;;;;;1541099;77;1260;-59
2023/03/15 07:43:46;;;;;;;;;;;20.20;43.60;;;;;;1538499;77;1955;-58
2023/03/15 07:45:48;;;;;;;;;;;20.20;43.60;;;;;;1541659;77;959;-59
2023/03/15 07:47:50;;;;;;;;;;;20.30;43.70;;;;;;1530889;77;758;-60
2023/03/15 07:49:52;;;;;;;;;;;20.20;43.60;;;;;;1540269;77;870;-59
2023/03/15 07:51:54;;;;;;;;;;;20.30;43.80;;;;;;1547561;77;1132;-59
2023/03/15 07:53:56;;;;;;;;;;;20.40;43.90;;;;;;1544244;77;726;-58
2023/03/15 07:55:58;;;;;;;;;;;20.40;43.80;;;;;;1544055;77;680;-59
2023/03/15 07:58:00;;;;;;;;;;;20.50;43.80;;;;;;1547114;77;762;-58
2023/03/15 08:00:03;;;;;;;;;;;20.40;43.60;;;;;;1545755;77;750;-60
2023/03/15 08:02:05;;;;;;;;;;;20.40;43.20;;;;;;1542503;77;1155;-59
2023/03/15 08:04:07;;;;;;;;;;;20.50;43.50;;;;;;1544703;77;1939;-58
2023/03/15 08:06:08;;;;;;;;;;;20.60;43.60;;;;;;1539201;77;757;-58
2023/03/15 08:08:10;;;;;;;;;;;20.70;43.70;;;;;;1545376;77;746;-58
2023/03/15 08:10:12;;;;;;;;;;;20.70;43.60;;;;;;1542106;77;795;-60
2023/03/15 08:12:14;;;;;;;;;;;20.80;43.30;;;;;;1541112;77;1152;-59
2023/03/15 08:14:16;;;;;;;;;;;20.80;43.20;;;;;;1544195;77;761;-59
2023/03/15 08:16:18;;;;;;;;;;;20.80;43.00;;;;;;1542372;77;699;-60
2023/03/15 08:18:20;;;;;;;;;;;20.80;43.00;;;;;;1545252;77;562;-60
2023/03/15 08:20:22;;;;;;;;;;;20.90;43.10;;;;;;1546073;77;761;-58
2023/03/15 08:22:24;;;;;;;;;;;20.80;42.90;;;;;;1535131;77;1137;-60
2023/03/15 08:24:25;;;;;;;;;;;20.90;42.90;;;;;;1543857;77;1938;-60
2023/03/15 08:26:27;;;;;;;;;;;20.80;42.80;;;;;;1538139;77;759;-59
2023/03/15 08:28:29;;;;;;;;;;;20.90;42.80;;;;;;1545299;77;716;-60
2023/03/15 08:30:31;;;;;;;;;;;20.90;42.70;;;;;;1547879;77;727;-60
2023/03/15 08:32:33;;;;;;;;;;;20.90;42.70;;;;;;1544829;77;1142;-59
2023/03/15 08:34:35;;;;;;;;;;;20.90;42.60;;;;;;1547649;77;777;-59
2023/03/15 08:36:37;;;;;;;;;;;21.00;42.60;;;;;;1541829;77;703;-60
2023/03/15 08:38:39;;;;;;;;;;;21.00;42.50;;;;;;1547341;77;1553;-60
2023/03/15 08:40:41;;;;;;;;;;;21.00;42.50;;;;;;1547447;77;788;-60
2023/03/15 08:42:43;;;;;;;;;;;21.00;42.60;;;;;;1545947;77;1121;-60
2023/03/15 08:44:45;;;;;;;;;;;21.10;42.60;;;;;;1542722;77;1945;-60
2023/03/15 08:46:47;;;;;;;;;;;21.10;42.50;;;;;;1543410;77;789;-60
2023/03/15 08:48:49;;;;;;;;;;;21.10;42.60;;;;;;1535059;77;675;-59
2023/03/15 08:50:50;;;;;;;;;;;21.10;42.40;;;;;;1544250;77;660;-60
2023/03/15 08:52:52;;;;;;;;;;;21.10;42.40;;;;;;1536309;77;1403;-58
2023/03/15 08:54:54;;;;;;;;;;;21.20;42.30;;;;;;1526095;77;725;-59
2023/03/15 08:56:56;;;;;;;;;;;21.20;42.30;;;;;;1535181;77;764;-59
2023/03/15 08:58:58;;;;;;;;;;;21.20;42.20;;;;;;1544689;77;699;-59
2023/03/15 09:01:00;;;;;;;;;;;21.30;42.30;;;;;;1548000;77;746;-60
2023/03/15 09:03:03;;;;;;;;;;;21.20;41.90;;;;;;1539231;77;1178;-60
2023/03/15 09:05:05;;;;;;;;;;;21.20;42.00;;;;;;1543539;77;1911;-60
2023/03/15 09:07:07;;;;;;;;;;;21.20;42.00;;;;;;1533757;77;1525;-58
2023/03/15 09:09:10;;;;;;;;;;;21.30;42.10;;;;;;1543853;77;778;-60
2023/03/15 09:11:12;;;;;;;;;;;21.30;42.10;;;;;;1537117;77;839;-59
2023/03/15 09:13:14;;;;;;;;;;;21.20;41.90;;;;;;1541518;77;1108;-59
2023/03/15 09:15:16;;;;;;;;;;;21.20;41.80;;;;;;1544484;77;738;-60
2023/03/15 09:17:18;;;;;;;;;;;21.30;42.10;;;;;;1539381;77;723;-60
2023/03/15 09:19:20;;;;;;;;;;;21.30;42.00;;;;;;1542771;77;715;-59
2023/03/15 09:21:23;;;;;;;;;;;21.30;42.00;;;;;;1541328;77;1525;-59
2023/03/15 09:23:25;;;;;;;;;;;21.30;41.90;;;;;;1532393;77;777;-59
2023/03/15 09:25:27;;;;;;;;;;;21.20;41.80;;;;;;1529862;77;1956;-60
2023/03/15 09:27:32;;;;;;;;;;;21.40;41.80;;;;;;1535280;77;720;-59
2023/03/15 09:29:33;;;;;;;;;;;21.30;41.80;;;;;;1537878;77;681;-59
2023/03/15 09:31:35;;;;;;;;;;;21.40;41.70;;;;;;1546750;77;1111;-58
2023/03/15 09:33:37;;;;;;;;;;;21.40;41.80;;;;;;1537966;77;794;-59
2023/03/15 09:35:39;;;;;;;;;;;21.40;41.70;;;;;;1537811;77;1329;-59
2023/03/15 09:37:41;;;;;;;;;;;21.30;41.70;;;;;;1542757;77;701;-60
2023/03/15 09:39:43;;;;;;;;;;;21.40;41.60;;;;;;1533618;77;724;-60
2023/03/15 09:41:49;;;;;;;;;;;21.40;41.60;;;;;;1529935;77;1100;-59
2023/03/15 09:44:08;;;;;;;;;;;21.40;41.50;;;;;;1544030;77;1892;-60
2023/03/15 09:46:11;;;;;;;;;;;21.30;41.50;;;;;;1542382;77;767;-59
2023/03/15 09:48:18;;;;;;;;;;;21.40;41.50;;;;;;1547721;77;689;-60
2023/03/15 09:50:24;;;;;;;;;;;21.30;41.50;;;;;;1543677;77;1515;-59
2023/03/15 09:52:31;;;;;;;;;;;21.30;41.50;;;;;;1539403;77;1153;-60
2023/03/15 09:54:43;;;;;;;;;;;21.20;41.30;;;;;;1530414;77;605;-59
2023/03/15 09:57:05;;;;;;;;;;;21.20;41.40;;;;;;1541370;77;1882;-59
2023/03/15 09:59:04;;;;;;;;;;;21.20;41.40;;;;;;1538363;77;1593;-60
2023/03/15 10:01:06;;;;;;;;;;;21.20;41.30;;;;;;1536556;77;747;-59
2023/03/15 10:03:10;;;;;;;;;;;21.20;41.40;;;;;;1543498;77;1503;-60
2023/03/15 10:05:15;;;;;;;;;;;21.10;41.40;;;;;;1535536;77;1944;-60
2023/03/15 10:07:17;;;;;;;;;;;21.20;41.40;;;;;;1531335;77;1909;-61
2023/03/15 10:09:20;;;;;;;;;;;21.20;41.40;;;;;;1532203;77;945;-59
2023/03/15 10:11:26;;;;;;;;;;;21.20;41.40;;;;;;1537653;77;767;-59
2023/03/15 10:13:29;;;;;;;;;;;21.20;41.40;;;;;;1539059;77;718;-59
2023/03/15 10:15:39;;;;;;;;;;;21.10;41.50;;;;;;1543209;77;1821;-60
2023/03/15 10:17:45;;;;;;;;;;;21.10;41.50;;;;;;1530816;77;1800;-60
2023/03/15 10:19:51;;;;;;;;;;;21.20;41.50;;;;;;1534798;77;1923;-60
2023/03/15 10:22:11;;;;;;;;;;;21.10;41.50;;;;;;1547066;77;1149;-59
2023/03/15 10:24:20;;;;;;;;;;;21.10;41.50;;;;;;1543829;77;1913;-61
2023/03/15 10:26:26;;;;;;;;;;;21.10;41.50;;;;;;1532959;77;767;-61
2023/03/15 10:28:28;;;;;;;;;;;21.10;41.50;;;;;;1546337;77;693;-60
2023/03/15 10:30:32;;;;;;;;;;;21.20;41.50;;;;;;1546205;77;763;-61
2023/03/15 10:32:35;;;;;;;;;;;21.10;41.50;;;;;;1543309;77;1552;-60
2023/03/15 10:34:37;;;;;;;;;;;21.10;41.50;;;;;;1529396;77;1947;-59
2023/03/15 10:36:42;;;;;;;;;;;21.20;41.50;;;;;;1546007;77;703;-60
2023/03/15 10:38:45;;;;;;;;;;;21.20;41.50;;;;;;1540309;77;700;-61
2023/03/15 10:40:47;;;;;;;;;;;21.20;41.50;;;;;;1541992;77;791;-60
2023/03/15 10:42:49;;;;;;;;;;;21.20;41.50;;;;;;1529936;77;1147;-61
2023/03/15 10:44:51;;;;;;;;;;;21.10;41.50;;;;;;1537272;77;1942;-61
2023/03/15 10:47:05;;;;;;;;;;;21.20;41.50;;;;;;1530228;77;732;-61
2023/03/15 10:49:16;;;;;;;;;;;21.20;41.40;;;;;;1534872;77;1630;-59
2023/03/15 10:51:29;;;;;;;;;;;21.10;41.50;;;;;;1547748;77;760;-60
2023/03/15 10:53:31;;;;;;;;;;;21.10;41.40;;;;;;1541390;77;695;-61
2023/03/15 10:55:36;;;;;;;;;;;21.20;41.50;;;;;;1541432;77;835;-60
2023/03/15 10:57:39;;;;;;;;;;;21.10;41.50;;;;;;1537956;77;695;-60
2023/03/15 10:59:43;;;;;;;;;;;21.10;41.50;;;;;;1545277;77;1199;-60
2023/03/15 11:01:46;;;;;;;;;;;21.10;41.50;;;;;;1502186;77;1782;-62
2023/03/15 11:03:50;;;;;;;;;;;21.10;41.50;;;;;;1537965;77;784;-59
2023/03/15 11:05:53;;;;;;;;;;;21.10;41.50;;;;;;1528461;77;1940;-61
2023/03/15 11:07:56;;;;;;;;;;;21.10;41.50;;;;;;1532572;77;743;-60
2023/03/15 11:09:59;;;;;;;;;;;21.10;41.50;;;;;;1537989;76;1020;-60
2023/03/15 11:12:02;;;;;;;;;;;21.10;41.50;;;;;;1541288;77;1100;-60
2023/03/15 11:14:04;;;;;;;;;;;21.10;41.50;;;;;;1535870;77;1538;-60
2023/03/15 11:16:08;;;;;;;;;;;21.10;41.50;;;;;;1525003;77;1215;-60
2023/03/15 11:18:12;;;;;;;;;;;21.10;41.50;;;;;;1537858;77;742;-61
2023/03/15 11:20:32;;;;;;;;;;;21.40;41.60;;;;;;1539752;77;1883;-60
2023/03/15 11:22:34;;;;;;;;;;;21.10;41.50;;;;;;1541063;77;1159;-60
2023/03/15 11:24:36;;;;;;;;;;;21.10;41.50;;;;;;1545767;77;1947;-60
2023/03/15 11:26:38;;;;;;;;;;;21.00;41.50;;;;;;1540188;77;803;-60
2023/03/15 11:28:41;;;;;;;;;;;21.00;41.40;;;;;;1546253;77;1637;-61
2023/03/15 11:30:43;;;;;;;;;;;21.00;41.40;;;;;;1539173;77;717;-61
2023/03/15 11:32:45;;;;;;;;;;;21.00;41.50;;;;;;1531327;77;1149;-60
2023/03/15 11:35:00;;;;;;;;;;;20.90;41.40;;;;;;1508380;78;721;-61
2023/03/15 11:37:03;;;;;;;;;;;21.00;41.50;;;;;;1535566;77;945;-60
2023/03/15 11:39:05;;;;;;;;;;;21.00;41.50;;;;;;1532513;77;705;-61
2023/03/15 11:41:15;;;;;;;;;;;20.90;41.50;;;;;;1539035;77;1512;-60
2023/03/15 11:43:27;;;;;;;;;;;21.00;41.60;;;;;;1527401;77;1107;-60
2023/03/15 11:45:37;;;;;;;;;;;21.00;41.60;;;;;;1543865;77;1943;-60
2023/03/15 11:47:43;;;;;;;;;;;21.00;41.70;;;;;;1546905;77;774;-60
2023/03/15 11:49:49;;;;;;;;;;;20.90;41.60;;;;;;1533919;77;721;-60
2023/03/15 11:51:51;;;;;;;;;;;20.90;41.60;;;;;;1539246;77;1112;-61
2023/03/15 11:54:06;;;;;;;;;;;20.90;41.60;;;;;;1507157;78;885;-61
2023/03/15 11:56:21;;;;;;;;;;;21.00;41.60;;;;;;1538985;77;1527;-61
2023/03/15 11:58:33;;;;;;;;;;;20.90;41.60;;;;;;1533278;77;707;-63
2023/03/15 12:00:36;;;;;;;;;;;20.90;41.70;;;;;;1537407;77;721;-61
2023/03/15 12:02:40;;;;;;;;;;;20.90;41.70;;;;;;1538940;77;1217;-60
2023/03/15 12:04:48;;;;;;;;;;;20.80;41.50;;;;;;1536309;77;1936;-60
2023/03/15 12:06:53;;;;;;;;;;;20.90;41.70;;;;;;1530998;77;768;-59
2023/03/15 12:08:54;;;;;;;;;;;20.80;41.60;;;;;;1536196;77;1660;-60
2023/03/15 12:10:56;;;;;;;;;;;20.90;41.70;;;;;;1537611;77;1672;-60
2023/03/15 12:12:59;;;;;;;;;;;20.90;41.70;;;;;;1506825;78;1143;-62